sensor_id;sensor_type;location;lat;lon;timestamp;pressure;altitude;pressure_sealevel;temperature;humidity
51439;BME280;38816;51.142;-0.974;2023-11-21T00:01:59;99981.53;;;9.54;100.00
51439;BME280;38816;51.142;-0.974;2023-11-21T00:04:24;99984.09;;;9.54;100.00
51439;BME280;38816;51.142;-0.974;2023-11-21T00:06:51;99987.53;;;9.54;100.00
51439;BME280;38816;51.142;-0.974;2023-11-21T00:09:16;99985.88;;;9.56;100.00
51439;BME280;38816;51.142;-0.974;2023-11-21T00:11:43;99996.06;;;9.52;100.00
51439;BME280;38816;51.142;-0.974;2023-11-21T00:14:10;100007.25;;;9.57;100.00
51439;BME280;38816;51.142;-0.974;2023-11-21T00:16:35;100007.97;;;9.50;100.00
51439;BME280;38816;51.142;-0.974;2023-11-21T00:19:01;100013.72;;;9.36;100.00
51439;BME280;38816;51.142;-0.974;2023-11-21T00:21:26;100017.97;;;9.33;100.00
51439;BME280;38816;51.142;-0.974;2023-11-21T00:23:52;100022.25;;;9.32;100.00
51439;BME280;38816;51.142;-0.974;2023-11-21T00:26:17;100021.34;;;9.32;100.00
51439;BME280;38816;51.142;-0.974;2023-11-21T00:28:43;100022.44;;;9.45;100.00
51439;BME280;38816;51.142;-0.974;2023-11-21T00:31:08;100018.91;;;9.39;100.00
51439;BME280;38816;51.142;-0.974;2023-11-21T00:33:34;100020.56;;;9.36;100.00
51439;BME280;38816;51.142;-0.974;2023-11-21T00:35:59;100029.94;;;9.34;100.00
51439;BME280;38816;51.142;-0.974;2023-11-21T00:38:26;100029.03;;;9.30;100.00
51439;BME280;38816;51.142;-0.974;2023-11-21T00:40:52;100039.44;;;9.39;100.00
51439;BME280;38816;51.142;-0.974;2023-11-21T00:43:24;100041.88;;;9.32;100.00
51439;BME280;38816;51.142;-0.974;2023-11-21T00:45:49;100030.88;;;9.37;100.00
51439;BME280;38816;51.142;-0.974;2023-11-21T00:48:15;100034.25;;;9.36;100.00
51439;BME280;38816;51.142;-0.974;2023-11-21T00:50:40;100032.53;;;9.35;100.00
51439;BME280;38816;51.142;-0.974;2023-11-21T00:53:07;100039.19;;;9.24;100.00
51439;BME280;38816;51.142;-0.974;2023-11-21T00:55:33;100037.28;;;9.14;100.00
51439;BME280;38816;51.142;-0.974;2023-11-21T00:57:58;100028.66;;;9.10;100.00
51439;BME280;38816;51.142;-0.974;2023-11-21T01:00:25;100033.91;;;9.18;100.00
51439;BME280;38816;51.142;-0.974;2023-11-21T01:02:50;100036.38;;;9.10;100.00
51439;BME280;38816;51.142;-0.974;2023-11-21T01:05:16;100033.81;;;9.10;100.00
51439;BME280;38816;51.142;-0.974;2023-11-21T01:07:41;100040.66;;;9.13;100.00
51439;BME280;38816;51.142;-0.974;2023-11-21T01:10:07;100045.03;;;9.17;100.00
51439;BME280;38816;51.142;-0.974;2023-11-21T01:12:37;100044.41;;;9.29;100.00
51439;BME280;38816;51.142;-0.974;2023-11-21T01:15:04;100046.78;;;9.20;100.00
51439;BME280;38816;51.142;-0.974;2023-11-21T01:17:32;100048.50;;;9.21;100.00
51439;BME280;38816;51.142;-0.974;2023-11-21T01:19:59;100057.69;;;9.09;100.00
51439;BME280;38816;51.142;-0.974;2023-11-21T01:22:25;100067.81;;;9.02;100.00
51439;BME280;38816;51.142;-0.974;2023-11-21T01:24:54;100070.41;;;9.05;100.00
51439;BME280;38816;51.142;-0.974;2023-11-21T01:27:20;100069.53;;;9.03;100.00
51439;BME280;38816;51.142;-0.974;2023-11-21T01:29:45;100067.06;;;9.07;100.00
51439;BME280;38816;51.142;-0.974;2023-11-21T01:32:11;100065.38;;;9.09;100.00
51439;BME280;38816;51.142;-0.974;2023-11-21T01:34:36;100061.94;;;9.07;100.00
51439;BME280;38816;51.142;-0.974;2023-11-21T01:37:02;100063.72;;;9.10;100.00
51439;BME280;38816;51.142;-0.974;2023-11-21T01:39:30;100071.41;;;9.11;100.00
51439;BME280;38816;51.142;-0.974;2023-11-21T01:41:55;100072.38;;;9.17;100.00
51439;BME280;38816;51.142;-0.974;2023-11-21T01:44:24;100080.81;;;9.11;100.00
51439;BME280;38816;51.142;-0.974;2023-11-21T01:46:50;100084.06;;;9.02;100.00
51439;BME280;38816;51.142;-0.974;2023-11-21T01:49:16;100089.09;;;8.98;100.00
51439;BME280;38816;51.142;-0.974;2023-11-21T01:51:46;100091.84;;;9.07;100.00
51439;BME280;38816;51.142;-0.974;2023-11-21T01:54:14;100090.94;;;9.05;100.00
51439;BME280;38816;51.142;-0.974;2023-11-21T01:56:40;100101.16;;;9.02;100.00
51439;BME280;38816;51.142;-0.974;2023-11-21T01:59:05;100095.16;;;9.01;100.00
51439;BME280;38816;51.142;-0.974;2023-11-21T02:01:33;100095.75;;;8.88;100.00
51439;BME280;38816;51.142;-0.974;2023-11-21T02:03:59;100099.84;;;8.81;100.00
51439;BME280;38816;51.142;-0.974;2023-11-21T02:06:24;100109.06;;;8.73;100.00
51439;BME280;38816;51.142;-0.974;2023-11-21T02:08:51;100109.03;;;8.70;100.00
51439;BME280;38816;51.142;-0.974;2023-11-21T02:11:16;100119.19;;;8.66;100.00
51439;BME280;38816;51.142;-0.974;2023-11-21T02:13:42;100112.44;;;8.69;100.00
51439;BME280;38816;51.142;-0.974;2023-11-21T02:16:10;100117.50;;;8.68;100.00
51439;BME280;38816;51.142;-0.974;2023-11-21T02:18:38;100122.63;;;8.68;100.00
51439;BME280;38816;51.142;-0.974;2023-11-21T02:21:05;100121.88;;;8.73;100.00
51439;BME280;38816;51.142;-0.974;2023-11-21T02:23:30;100123.59;;;8.73;100.00
51439;BME280;38816;51.142;-0.974;2023-11-21T02:25:55;100121.19;;;8.79;100.00
51439;BME280;38816;51.142;-0.974;2023-11-21T02:28:21;100127.94;;;8.75;100.00
51439;BME280;38816;51.142;-0.974;2023-11-21T02:30:51;100138.25;;;8.78;100.00
51439;BME280;38816;51.142;-0.974;2023-11-21T02:33:21;100140.88;;;8.81;100.00
51439;BME280;38816;51.142;-0.974;2023-11-21T02:35:46;100134.94;;;8.84;100.00
51439;BME280;38816;51.142;-0.974;2023-11-21T02:38:12;100141.72;;;8.82;100.00
51439;BME280;38816;51.142;-0.974;2023-11-21T02:40:37;100144.38;;;8.86;100.00
51439;BME280;38816;51.142;-0.974;2023-11-21T02:43:03;100141.97;;;8.93;100.00
51439;BME280;38816;51.142;-0.974;2023-11-21T02:45:31;100146.25;;;8.94;100.00
51439;BME280;38816;51.142;-0.974;2023-11-21T02:47:57;100144.53;;;8.93;100.00
51439;BME280;38816;51.142;-0.974;2023-11-21T02:50:22;100157.34;;;8.93;100.00
51439;BME280;38816;51.142;-0.974;2023-11-21T02:52:48;100143.69;;;8.92;100.00
51439;BME280;38816;51.142;-0.974;2023-11-21T02:55:14;100148.84;;;8.95;100.00
51439;BME280;38816;51.142;-0.974;2023-11-21T02:57:39;100158.41;;;9.01;100.00
51439;BME280;38816;51.142;-0.974;2023-11-21T03:00:05;100167.00;;;9.04;100.00
51439;BME280;38816;51.142;-0.974;2023-11-21T03:02:33;100173.81;;;9.04;100.00
51439;BME280;38816;51.142;-0.974;2023-11-21T03:04:59;100186.84;;;9.13;100.00
51439;BME280;38816;51.142;-0.974;2023-11-21T03:07:25;100181.00;;;9.19;100.00
51439;BME280;38816;51.142;-0.974;2023-11-21T03:09:50;100180.16;;;9.20;100.00
51439;BME280;38816;51.142;-0.974;2023-11-21T03:12:16;100186.22;;;9.23;100.00
51439;BME280;38816;51.142;-0.974;2023-11-21T03:14:41;100187.19;;;9.30;100.00
51439;BME280;38816;51.142;-0.974;2023-11-21T03:17:07;100188.91;;;9.29;100.00
51439;BME280;38816;51.142;-0.974;2023-11-21T03:19:32;100188.81;;;9.26;100.00
51439;BME280;38816;51.142;-0.974;2023-11-21T03:21:58;100195.94;;;9.39;100.00
51439;BME280;38816;51.142;-0.974;2023-11-21T03:24:24;100191.53;;;9.32;100.00
51439;BME280;38816;51.142;-0.974;2023-11-21T03:26:50;100191.28;;;9.20;100.00
51439;BME280;38816;51.142;-0.974;2023-11-21T03:29:16;100194.53;;;9.13;100.00
51439;BME280;38816;51.142;-0.974;2023-11-21T03:31:41;100198.63;;;9.05;100.00
51439;BME280;38816;51.142;-0.974;2023-11-21T03:34:14;100189.94;;;8.97;100.00
51439;BME280;38816;51.142;-0.974;2023-11-21T03:36:39;100201.81;;;8.95;100.00
51439;BME280;38816;51.142;-0.974;2023-11-21T03:39:04;100202.75;;;8.97;100.00
51439;BME280;38816;51.142;-0.974;2023-11-21T03:41:30;100204.47;;;8.98;100.00
51439;BME280;38816;51.142;-0.974;2023-11-21T03:43:55;100206.19;;;8.99;100.00
51439;BME280;38816;51.142;-0.974;2023-11-21T03:46:21;100206.94;;;8.93;100.00
51439;BME280;38816;51.142;-0.974;2023-11-21T03:48:46;100207.69;;;8.89;100.00
51439;BME280;38816;51.142;-0.974;2023-11-21T03:51:12;100207.81;;;8.95;100.00
51439;BME280;38816;51.142;-0.974;2023-11-21T03:53:37;100216.31;;;8.93;100.00
51439;BME280;38816;51.142;-0.974;2023-11-21T03:56:03;100218.13;;;8.97;100.00
51439;BME280;38816;51.142;-0.974;2023-11-21T03:58:29;100226.78;;;9.02;100.00
51439;BME280;38816;51.142;-0.974;2023-11-21T04:00:54;100237.88;;;9.01;100.00
51439;BME280;38816;51.142;-0.974;2023-11-21T04:03:20;100245.41;;;8.95;100.00
51439;BME280;38816;51.142;-0.974;2023-11-21T04:05:45;100241.16;;;8.95;100.00
51439;BME280;38816;51.142;-0.974;2023-11-21T04:08:11;100244.53;;;8.93;100.00
51439;BME280;38816;51.142;-0.974;2023-11-21T04:10:36;100251.47;;;8.98;100.00
51439;BME280;38816;51.142;-0.974;2023-11-21T04:13:01;100246.31;;;8.97;100.00
51439;BME280;38816;51.142;-0.974;2023-11-21T04:15:27;100264.31;;;9.00;100.00
51439;BME280;38816;51.142;-0.974;2023-11-21T04:17:52;100262.84;;;9.09;100.00
51439;BME280;38816;51.142;-0.974;2023-11-21T04:20:18;100270.47;;;9.06;100.00
51439;BME280;38816;51.142;-0.974;2023-11-21T04:22:44;100278.19;;;9.08;100.00
51439;BME280;38816;51.142;-0.974;2023-11-21T04:25:11;100278.22;;;9.09;100.00
51439;BME280;38816;51.142;-0.974;2023-11-21T04:27:41;100281.69;;;9.10;100.00
51439;BME280;38816;51.142;-0.974;2023-11-21T04:30:14;100290.25;;;9.12;100.00
51439;BME280;38816;51.142;-0.974;2023-11-21T04:32:40;100295.47;;;9.15;100.00
51439;BME280;38816;51.142;-0.974;2023-11-21T04:35:06;100300.66;;;9.18;100.00
51439;BME280;38816;51.142;-0.974;2023-11-21T04:37:31;100298.91;;;9.17;100.00
51439;BME280;38816;51.142;-0.974;2023-11-21T04:39:57;100299.00;;;9.20;100.00
51439;BME280;38816;51.142;-0.974;2023-11-21T04:42:22;100304.13;;;9.20;100.00
51439;BME280;38816;51.142;-0.974;2023-11-21T04:44:48;100304.88;;;9.16;100.00
51439;BME280;38816;51.142;-0.974;2023-11-21T04:47:14;100298.88;;;9.14;100.00
51439;BME280;38816;51.142;-0.974;2023-11-21T04:49:42;100300.84;;;9.27;100.00
51439;BME280;38816;51.142;-0.974;2023-11-21T04:52:08;100302.44;;;9.22;100.00
51439;BME280;38816;51.142;-0.974;2023-11-21T04:54:35;100307.56;;;9.21;100.00
51439;BME280;38816;51.142;-0.974;2023-11-21T04:57:00;100303.09;;;9.13;100.00
51439;BME280;38816;51.142;-0.974;2023-11-21T04:59:26;100309.28;;;9.22;100.00
51439;BME280;38816;51.142;-0.974;2023-11-21T05:01:53;100309.25;;;9.20;100.00
51439;BME280;38816;51.142;-0.974;2023-11-21T05:04:19;100308.34;;;9.18;100.00
51439;BME280;38816;51.142;-0.974;2023-11-21T05:06:44;100308.22;;;9.12;100.00
51439;BME280;38816;51.142;-0.974;2023-11-21T05:09:10;100310.84;;;9.15;100.00
51439;BME280;38816;51.142;-0.974;2023-11-21T05:11:37;100312.44;;;9.10;100.00
51439;BME280;38816;51.142;-0.974;2023-11-21T05:14:03;100320.09;;;9.08;100.00
51439;BME280;38816;51.142;-0.974;2023-11-21T05:16:30;100323.41;;;9.04;100.00
51439;BME280;38816;51.142;-0.974;2023-11-21T05:18:56;100318.38;;;9.09;100.00
51439;BME280;38816;51.142;-0.974;2023-11-21T05:21:28;100339.00;;;9.13;100.00
51439;BME280;38816;51.142;-0.974;2023-11-21T05:23:57;100350.84;;;9.07;100.00
51439;BME280;38816;51.142;-0.974;2023-11-21T05:26:23;100362.91;;;9.11;100.00
51439;BME280;38816;51.142;-0.974;2023-11-21T05:28:48;100350.06;;;9.11;100.00
51439;BME280;38816;51.142;-0.974;2023-11-21T05:31:14;100346.56;;;9.07;100.00
51439;BME280;38816;51.142;-0.974;2023-11-21T05:33:40;100354.41;;;9.13;100.00
51439;BME280;38816;51.142;-0.974;2023-11-21T05:36:07;100362.16;;;9.15;100.00
51439;BME280;38816;51.142;-0.974;2023-11-21T05:38:33;100368.91;;;9.11;100.00
51439;BME280;38816;51.142;-0.974;2023-11-21T05:40:58;100364.50;;;9.07;100.00
51439;BME280;38816;51.142;-0.974;2023-11-21T05:43:24;100380.75;;;9.08;100.00
51439;BME280;38816;51.142;-0.974;2023-11-21T05:45:49;100386.06;;;9.14;100.00
51439;BME280;38816;51.142;-0.974;2023-11-21T05:54:58;100398.50;;;9.00;100.00
51439;BME280;38816;51.142;-0.974;2023-11-21T05:57:24;100399.31;;;8.98;100.00
51439;BME280;38816;51.142;-0.974;2023-11-21T05:59:49;100408.63;;;8.94;100.00
51439;BME280;38816;51.142;-0.974;2023-11-21T06:02:15;100414.56;;;8.92;100.00
51439;BME280;38816;51.142;-0.974;2023-11-21T06:04:40;100413.59;;;8.88;100.00
51439;BME280;38816;51.142;-0.974;2023-11-21T06:07:06;100418.16;;;9.00;100.00
51439;BME280;38816;51.142;-0.974;2023-11-21T06:09:32;100413.75;;;8.94;100.00
51439;BME280;38816;51.142;-0.974;2023-11-21T06:11:57;100424.81;;;8.92;100.00
51439;BME280;38816;51.142;-0.974;2023-11-21T06:14:23;100441.69;;;8.83;100.00
51439;BME280;38816;51.142;-0.974;2023-11-21T06:16:49;100440.03;;;8.85;100.00
51439;BME280;38816;51.142;-0.974;2023-11-21T06:19:17;100448.50;;;8.83;100.00
51439;BME280;38816;51.142;-0.974;2023-11-21T06:21:45;100441.50;;;8.77;100.00
51439;BME280;38816;51.142;-0.974;2023-11-21T06:24:11;100445.97;;;8.84;100.00
51439;BME280;38816;51.142;-0.974;2023-11-21T06:26:36;100437.31;;;8.79;100.00
51439;BME280;38816;51.142;-0.974;2023-11-21T06:29:01;100447.44;;;8.75;100.00
51439;BME280;38816;51.142;-0.974;2023-11-21T06:31:29;100445.00;;;8.79;100.00
51439;BME280;38816;51.142;-0.974;2023-11-21T06:33:54;100442.44;;;8.79;100.00
51439;BME280;38816;51.142;-0.974;2023-11-21T06:36:20;100449.16;;;8.76;100.00
51439;BME280;38816;51.142;-0.974;2023-11-21T06:38:45;100457.59;;;8.72;100.00
51439;BME280;38816;51.142;-0.974;2023-11-21T06:41:11;100458.66;;;8.78;100.00
51439;BME280;38816;51.142;-0.974;2023-11-21T06:43:39;100456.81;;;8.74;100.00
51439;BME280;38816;51.142;-0.974;2023-11-21T06:46:04;100465.13;;;8.66;100.00
51439;BME280;38816;51.142;-0.974;2023-11-21T06:48:30;100475.50;;;8.70;100.00
51439;BME280;38816;51.142;-0.974;2023-11-21T06:50:56;100486.59;;;8.69;100.00
51439;BME280;38816;51.142;-0.974;2023-11-21T06:53:21;100485.81;;;8.73;100.00
51439;BME280;38816;51.142;-0.974;2023-11-21T06:55:47;100486.63;;;8.71;100.00
51439;BME280;38816;51.142;-0.974;2023-11-21T06:58:12;100491.72;;;8.69;100.00
51439;BME280;38816;51.142;-0.974;2023-11-21T07:00:39;100516.50;;;8.70;100.00
51439;BME280;38816;51.142;-0.974;2023-11-21T07:03:05;100506.31;;;8.73;100.00
51439;BME280;38816;51.142;-0.974;2023-11-21T07:05:30;100514.69;;;8.66;100.00
51439;BME280;38816;51.142;-0.974;2023-11-21T07:07:56;100529.97;;;8.63;100.00
51439;BME280;38816;51.142;-0.974;2023-11-21T07:10:21;100529.09;;;8.62;100.00
51439;BME280;38816;51.142;-0.974;2023-11-21T07:12:47;100534.50;;;8.73;100.00
51439;BME280;38816;51.142;-0.974;2023-11-21T07:15:12;100536.69;;;8.59;100.00
51439;BME280;38816;51.142;-0.974;2023-11-21T07:17:38;100545.31;;;8.61;100.00
51439;BME280;38816;51.142;-0.974;2023-11-21T07:20:05;100543.38;;;8.54;100.00
51439;BME280;38816;51.142;-0.974;2023-11-21T07:22:32;100546.75;;;8.53;100.00
51439;BME280;38816;51.142;-0.974;2023-11-21T07:24:57;100556.16;;;8.53;100.00
51439;BME280;38816;51.142;-0.974;2023-11-21T07:27:22;100553.69;;;8.56;100.00
51439;BME280;38816;51.142;-0.974;2023-11-21T07:29:48;100562.09;;;8.52;100.00
51439;BME280;38816;51.142;-0.974;2023-11-21T07:32:14;100567.09;;;8.47;100.00
51439;BME280;38816;51.142;-0.974;2023-11-21T07:34:40;100563.69;;;8.48;100.00
51439;BME280;38816;51.142;-0.974;2023-11-21T07:37:07;100567.84;;;8.45;100.00
51439;BME280;38816;51.142;-0.974;2023-11-21T07:39:34;100573.81;;;8.44;100.00
51439;BME280;38816;51.142;-0.974;2023-11-21T07:41:59;100571.97;;;8.40;100.00
51439;BME280;38816;51.142;-0.974;2023-11-21T07:44:25;100592.38;;;8.36;100.00
51439;BME280;38816;51.142;-0.974;2023-11-21T07:46:51;100592.59;;;8.44;100.00
51439;BME280;38816;51.142;-0.974;2023-11-21T07:49:17;100587.50;;;8.46;100.00
51439;BME280;38816;51.142;-0.974;2023-11-21T07:51:45;100592.91;;;8.55;100.00
51439;BME280;38816;51.142;-0.974;2023-11-21T07:54:11;100596.69;;;8.38;100.00
51439;BME280;38816;51.142;-0.974;2023-11-21T07:56:36;100603.25;;;8.31;100.00
51439;BME280;38816;51.142;-0.974;2023-11-21T07:59:02;100605.28;;;8.14;100.00
51439;BME280;38816;51.142;-0.974;2023-11-21T08:01:32;100603.28;;;8.05;100.00
51439;BME280;38816;51.142;-0.974;2023-11-21T08:04:00;100618.72;;;8.07;100.00
51439;BME280;38816;51.142;-0.974;2023-11-21T08:06:29;100630.13;;;8.17;100.00
51439;BME280;38816;51.142;-0.974;2023-11-21T08:08:56;100629.44;;;8.22;100.00
51439;BME280;38816;51.142;-0.974;2023-11-21T08:11:22;100626.41;;;8.34;100.00
51439;BME280;38816;51.142;-0.974;2023-11-21T08:13:47;100629.09;;;8.37;100.00
51439;BME280;38816;51.142;-0.974;2023-11-21T08:16:12;100620.69;;;8.41;100.00
51439;BME280;38816;51.142;-0.974;2023-11-21T08:18:38;100623.50;;;8.49;100.00
51439;BME280;38816;51.142;-0.974;2023-11-21T08:21:05;100629.66;;;8.55;100.00
51439;BME280;38816;51.142;-0.974;2023-11-21T08:23:30;100627.16;;;8.57;100.00
51439;BME280;38816;51.142;-0.974;2023-11-21T08:25:56;100639.16;;;8.58;100.00
51439;BME280;38816;51.142;-0.974;2023-11-21T08:28:21;100638.41;;;8.62;100.00
51439;BME280;38816;51.142;-0.974;2023-11-21T08:30:53;100648.84;;;8.68;100.00
51439;BME280;38816;51.142;-0.974;2023-11-21T08:33:22;100641.03;;;8.63;100.00
51439;BME280;38816;51.142;-0.974;2023-11-21T08:35:48;100644.38;;;8.61;100.00
51439;BME280;38816;51.142;-0.974;2023-11-21T08:38:13;100652.97;;;8.63;100.00
51439;BME280;38816;51.142;-0.974;2023-11-21T08:40:39;100654.06;;;8.71;100.00
51439;BME280;38816;51.142;-0.974;2023-11-21T08:43:04;100657.41;;;8.69;100.00
51439;BME280;38816;51.142;-0.974;2023-11-21T08:45:31;100648.91;;;8.70;100.00
51439;BME280;38816;51.142;-0.974;2023-11-21T08:47:57;100663.69;;;8.78;100.00
51439;BME280;38816;51.142;-0.974;2023-11-21T08:50:22;100654.25;;;8.77;100.00
51439;BME280;38816;51.142;-0.974;2023-11-21T08:52:48;100673.97;;;8.78;100.00
51439;BME280;38816;51.142;-0.974;2023-11-21T08:55:14;100662.22;;;8.86;100.00
51439;BME280;38816;51.142;-0.974;2023-11-21T08:57:40;100675.25;;;8.93;100.00
51439;BME280;38816;51.142;-0.974;2023-11-21T09:00:07;100669.19;;;8.91;100.00
51439;BME280;38816;51.142;-0.974;2023-11-21T09:02:34;100677.00;;;8.95;100.00
51439;BME280;38816;51.142;-0.974;2023-11-21T09:05:00;100682.47;;;9.06;100.00
51439;BME280;38816;51.142;-0.974;2023-11-21T09:07:28;100685.09;;;9.09;100.00
51439;BME280;38816;51.142;-0.974;2023-11-21T09:09:54;100682.38;;;9.03;100.00
51439;BME280;38816;51.142;-0.974;2023-11-21T09:12:20;100695.06;;;8.98;100.00
51439;BME280;38816;51.142;-0.974;2023-11-21T09:14:46;100684.25;;;9.08;100.00
51439;BME280;38816;51.142;-0.974;2023-11-21T09:17:12;100699.69;;;9.10;100.00
51439;BME280;38816;51.142;-0.974;2023-11-21T09:19:37;100688.78;;;9.17;100.00
51439;BME280;38816;51.142;-0.974;2023-11-21T09:22:04;100695.28;;;9.06;100.00
51439;BME280;38816;51.142;-0.974;2023-11-21T09:24:31;100694.63;;;9.13;100.00
51439;BME280;38816;51.142;-0.974;2023-11-21T09:27:00;100691.31;;;9.16;100.00
51439;BME280;38816;51.142;-0.974;2023-11-21T09:29:26;100699.88;;;9.16;100.00
51439;BME280;38816;51.142;-0.974;2023-11-21T09:31:52;100702.59;;;9.22;100.00
51439;BME280;38816;51.142;-0.974;2023-11-21T09:34:19;100696.97;;;9.34;100.00
51439;BME280;38816;51.142;-0.974;2023-11-21T09:36:45;100701.03;;;9.27;100.00
51439;BME280;38816;51.142;-0.974;2023-11-21T09:39:11;100707.00;;;9.26;100.00
51439;BME280;38816;51.142;-0.974;2023-11-21T09:44:13;100703.13;;;9.41;100.00
51439;BME280;38816;51.142;-0.974;2023-11-21T09:46:42;100709.75;;;9.32;100.00
51439;BME280;38816;51.142;-0.974;2023-11-21T09:49:11;100714.06;;;9.33;100.00
51439;BME280;38816;51.142;-0.974;2023-11-21T09:51:42;100719.81;;;9.26;100.00
51439;BME280;38816;51.142;-0.974;2023-11-21T09:54:10;100731.00;;;9.28;100.00
51439;BME280;38816;51.142;-0.974;2023-11-21T09:56:39;100727.84;;;9.37;100.00
51439;BME280;38816;51.142;-0.974;2023-11-21T09:59:05;100742.28;;;9.33;100.00
51439;BME280;38816;51.142;-0.974;2023-11-21T10:01:36;100740.44;;;9.29;100.00
51439;BME280;38816;51.142;-0.974;2023-11-21T10:04:01;100742.78;;;9.22;100.00
51439;BME280;38816;51.142;-0.974;2023-11-21T10:06:28;100764.88;;;9.18;100.00
51439;BME280;38816;51.142;-0.974;2023-11-21T10:08:54;100756.44;;;9.21;100.00
51439;BME280;38816;51.142;-0.974;2023-11-21T10:11:24;100761.69;;;9.25;100.00
51439;BME280;38816;51.142;-0.974;2023-11-21T10:13:54;100769.28;;;9.22;100.00
51439;BME280;38816;51.142;-0.974;2023-11-21T10:16:25;100763.25;;;9.20;100.00
51439;BME280;38816;51.142;-0.974;2023-11-21T10:18:52;100764.09;;;9.19;100.00
51439;BME280;38816;51.142;-0.974;2023-11-21T10:21:21;100754.84;;;9.24;100.00
51439;BME280;38816;51.142;-0.974;2023-11-21T10:23:47;100762.59;;;9.27;100.00
51439;BME280;38816;51.142;-0.974;2023-11-21T10:26:13;100758.22;;;9.23;100.00
51439;BME280;38816;51.142;-0.974;2023-11-21T10:29:02;100759.22;;;9.28;100.00
51439;BME280;38816;51.142;-0.974;2023-11-21T10:31:32;100760.03;;;9.27;100.00
51439;BME280;38816;51.142;-0.974;2023-11-21T10:34:17;100760.84;;;9.25;100.00
51439;BME280;38816;51.142;-0.974;2023-11-21T10:36:43;100762.44;;;9.21;100.00
51439;BME280;38816;51.142;-0.974;2023-11-21T10:39:14;100767.72;;;9.27;100.00
51439;BME280;38816;51.142;-0.974;2023-11-21T10:41:44;100768.75;;;9.32;100.00
51439;BME280;38816;51.142;-0.974;2023-11-21T10:44:10;100767.28;;;9.41;100.00
51439;BME280;38816;51.142;-0.974;2023-11-21T10:46:36;100763.56;;;9.31;100.00
51439;BME280;38816;51.142;-0.974;2023-11-21T10:49:02;100770.22;;;9.24;100.00
51439;BME280;38816;51.142;-0.974;2023-11-21T10:51:27;100764.25;;;9.25;100.00
51439;BME280;38816;51.142;-0.974;2023-11-21T10:53:53;100771.09;;;9.25;100.00
51439;BME280;38816;51.142;-0.974;2023-11-21T10:56:22;100779.56;;;9.22;100.00
51439;BME280;38816;51.142;-0.974;2023-11-21T10:58:52;100781.31;;;9.23;100.00
51439;BME280;38816;51.142;-0.974;2023-11-21T11:01:18;100778.97;;;9.31;100.00
51439;BME280;38816;51.142;-0.974;2023-11-21T11:03:47;100790.97;;;9.32;100.00
51439;BME280;38816;51.142;-0.974;2023-11-21T11:06:14;100787.66;;;9.36;100.00
51439;BME280;38816;51.142;-0.974;2023-11-21T11:08:40;100787.63;;;9.34;100.00
51439;BME280;38816;51.142;-0.974;2023-11-21T11:11:06;100782.50;;;9.34;100.00
51439;BME280;38816;51.142;-0.974;2023-11-21T11:13:32;100777.91;;;9.53;100.00
51439;BME280;38816;51.142;-0.974;2023-11-21T11:15:59;100787.16;;;9.48;100.00
51439;BME280;38816;51.142;-0.974;2023-11-21T11:18:25;100792.13;;;9.42;100.00
51439;BME280;38816;51.142;-0.974;2023-11-21T11:20:52;100790.38;;;9.41;100.00
51439;BME280;38816;51.142;-0.974;2023-11-21T11:36:48;100788.19;;;9.54;100.00
51439;BME280;38816;51.142;-0.974;2023-11-21T11:39:29;100788.13;;;9.51;100.00
51439;BME280;38816;51.142;-0.974;2023-11-21T11:41:59;100784.13;;;9.61;100.00
51439;BME280;38816;51.142;-0.974;2023-11-21T11:47:24;100789.56;;;9.72;100.00
51439;BME280;38816;51.142;-0.974;2023-11-21T11:55:06;100800.84;;;9.77;100.00
51439;BME280;38816;51.142;-0.974;2023-11-21T11:57:35;100793.94;;;9.74;100.00
51439;BME280;38816;51.142;-0.974;2023-11-21T12:02:36;100804.97;;;9.72;100.00
51439;BME280;38816;51.142;-0.974;2023-11-21T12:05:08;100803.19;;;9.69;100.00
51439;BME280;38816;51.142;-0.974;2023-11-21T12:07:54;100812.16;;;9.83;100.00
51439;BME280;38816;51.142;-0.974;2023-11-21T12:10:34;100807.25;;;9.91;100.00
51439;BME280;38816;51.142;-0.974;2023-11-21T12:13:01;100819.91;;;9.85;100.00
51439;BME280;38816;51.142;-0.974;2023-11-21T12:15:28;100826.63;;;9.81;100.00
51439;BME280;38816;51.142;-0.974;2023-11-21T12:17:57;100826.59;;;9.80;100.00
51439;BME280;38816;51.142;-0.974;2023-11-21T12:20:26;100825.13;;;9.88;100.00
51439;BME280;38816;51.142;-0.974;2023-11-21T12:22:54;100826.78;;;9.86;100.00
51439;BME280;38816;51.142;-0.974;2023-11-21T12:27:49;100841.97;;;10.08;100.00
51439;BME280;38816;51.142;-0.974;2023-11-21T12:30:16;100836.94;;;10.13;100.00
51439;BME280;38816;51.142;-0.974;2023-11-21T12:32:49;100836.34;;;10.22;100.00
51439;BME280;38816;51.142;-0.974;2023-11-21T12:35:17;100839.97;;;10.27;100.00
51439;BME280;38816;51.142;-0.974;2023-11-21T12:37:44;100839.84;;;10.24;100.00
51439;BME280;38816;51.142;-0.974;2023-11-21T12:40:11;100832.91;;;10.21;100.00
51439;BME280;38816;51.142;-0.974;2023-11-21T12:42:41;100845.97;;;9.99;100.00
51439;BME280;38816;51.142;-0.974;2023-11-21T12:47:55;100852.00;;;9.71;100.00
51439;BME280;38816;51.142;-0.974;2023-11-21T12:50:23;100869.84;;;9.66;100.00
51439;BME280;38816;51.142;-0.974;2023-11-21T12:52:52;100867.16;;;9.61;100.00
51439;BME280;38816;51.142;-0.974;2023-11-21T12:55:20;100865.41;;;9.60;100.00
51439;BME280;38816;51.142;-0.974;2023-11-21T12:57:50;100869.75;;;9.63;100.00
51439;BME280;38816;51.142;-0.974;2023-11-21T13:00:33;100860.97;;;9.55;100.00
51439;BME280;38816;51.142;-0.974;2023-11-21T13:03:03;100862.69;;;9.56;100.00
51439;BME280;38816;51.142;-0.974;2023-11-21T13:05:39;100867.91;;;9.59;100.00
51439;BME280;38816;51.142;-0.974;2023-11-21T13:08:08;100868.25;;;9.70;100.00
51439;BME280;38816;51.142;-0.974;2023-11-21T13:10:41;100871.06;;;9.77;100.00
51439;BME280;38816;51.142;-0.974;2023-11-21T13:13:10;100881.47;;;9.82;100.00
51439;BME280;38816;51.142;-0.974;2023-11-21T13:16:02;100860.72;;;9.76;100.00
51439;BME280;38816;51.142;-0.974;2023-11-21T13:18:31;100861.25;;;9.64;100.00